This is the latest recevied weather packets stored in our database for station/object WB4E-13. If no packets are shown the sender has not sent any weather packets the latest 10 day(s).
| Time | Temp. | Humidity | Pressure | Rain* | Wind** | Luminosity | Snow |
|---|---|---|---|---|---|---|---|
| 1777993345 | 22.22° C | 53% | 1011.6 hPa | 0 mm | - | - | - |
| 1777992745 | 21.67° C | 52% | 1011.8 hPa | 0 mm | - | - | - |
| 1777992144 | 22.22° C | 55% | 1011.7 hPa | 0 mm | - | - | - |
| 1777991548 | 21.67° C | 55% | 1011.6 hPa | 0 mm | - | - | - |
| 1777990948 | 21.11° C | 57% | 1011.8 hPa | 0 mm | - | - | - |
| 1777990348 | 20.56° C | 58% | 1011.8 hPa | 0 mm | - | - | - |
| 1777989748 | 20.56° C | 61% | 1012 hPa | 0 mm | - | - | - |
| 1777989147 | 19.44° C | 61% | 1012.1 hPa | 0 mm | - | - | - |
| 1777978944 | 10.56° C | 87% | 1010.5 hPa | 0 mm | - | - | - |
| 1777950110 | 18.89° C | 59% | 1010.2 hPa | 0 mm | - | - | - |
| 1777949510 | 18.89° C | 58% | 1010.2 hPa | 0 mm | - | - | - |
| 1777948910 | 18.89° C | 58% | 1010.2 hPa | 0 mm | - | - | - |
| 1777948310 | 18.89° C | 57% | 1010.4 hPa | 0 mm | - | - | - |
| 1777947710 | 19.44° C | 57% | 1010.4 hPa | 0 mm | - | - | - |
| 1777947110 | 19.44° C | 56% | 1010.3 hPa | 0 mm | - | - | - |
| 1777946510 | 19.44° C | 55% | 1010.2 hPa | 0 mm | - | - | - |
| 1777945909 | 20° C | 55% | 1010.1 hPa | 0 mm | - | - | - |
| 1777945309 | 20° C | 54% | 1010.1 hPa | 0 mm | - | - | - |
| 1777944709 | 20.56° C | 53% | 1010 hPa | 0 mm | - | - | - |
| 1777944109 | 20.56° C | 52% | 1009.9 hPa | 0 mm | - | - | - |
| 1777943509 | 21.11° C | 51% | 1009.8 hPa | 0 mm | - | - | - |
| 1777942909 | 21.67° C | 49% | 1009.8 hPa | 0 mm | - | - | - |
| 1777942309 | 21.67° C | 48% | 1009.6 hPa | 0 mm | - | - | - |
| 1777940806 | 22.78° C | 45% | 1009.5 hPa | 0 mm | - | - | - |
| 1777940206 | 22.78° C | 44% | 1009.5 hPa | 0 mm | - | - | - |
* Rain latest hour (hover to see other rain measurements)
** Current wind speed in m/s (hover to see current wind gust speed)